Time;durP1;ratioP1;P1;durP2;ratioP2;P2;SDS_P1;SDS_P2;PMS_P1;PMS_P2;Temp;Humidity;BMP_temperature;BMP_pressure;BME280_temperature;BME280_humidity;BME280_pressure;Samples;Min_cycle;Max_cycle;Signal;HPM_P1;HPM_P2
2023/06/28 00:01:09;;;;;;;4.05;3.25;;;;;;;;;;4929713;29;20100;-88
2023/06/28 00:03:34;;;;;;;6.53;3.20;;;;;;;;;;4924829;29;20046;-90
2023/06/28 00:06:00;;;;;;;4.72;2.80;;;;;;;;;;4943270;29;20505;-90
2023/06/28 00:08:25;;;;;;;6.30;3.47;;;;;;;;;;4927241;29;20040;-88
2023/06/28 00:10:50;;;;;;;5.00;3.40;;;;;;;;;;4931576;29;20040;-88
2023/06/28 00:13:17;;;;;;;3.40;2.83;;;;;;;;;;4948466;29;20067;-88
2023/06/28 00:15:43;;;;;;;4.85;3.60;;;;;;;;;;4946716;29;20066;-89
2023/06/28 00:18:08;;;;;;;4.60;2.75;;;;;;;;;;4943020;29;20050;-88
2023/06/28 00:20:37;;;;;;;3.40;3.10;;;;;;;;;;4943801;29;20087;-89
2023/06/28 00:23:03;;;;;;;3.78;2.65;;;;;;;;;;4940033;29;20040;-89
2023/06/28 00:25:29;;;;;;;4.00;3.17;;;;;;;;;;4933198;29;20107;-89
2023/06/28 00:27:54;;;;;;;5.72;3.00;;;;;;;;;;4933351;29;20400;-89
2023/06/28 00:30:20;;;;;;;2.90;2.67;;;;;;;;;;4927143;29;20031;-90
2023/06/28 03:00:22;;;;;;;9.52;5.63;;;;;;;;;;4950216;28;20098;-87
2023/06/28 03:06:47;;;;;;;6.20;4.97;;;;;;;;;;4960248;28;20088;-88
2023/06/28 03:10:04;;;;;;;8.07;5.15;;;;;;;;;;4928256;28;20050;-88
2023/06/28 03:13:41;;;;;;;;;;;;;;;;;;;;;
2023/06/28 03:19:54;;;;;;;8.68;5.03;;;;;;;;;;4910576;28;20037;-87
2023/06/28 03:22:55;;;;;;;7.72;5.43;;;;;;;;;;4962675;28;20035;-88
2023/06/28 03:28:20;;;;;;;10.82;5.40;;;;;;;;;;4979294;28;20472;-87
2023/06/28 03:30:51;;;;;;;9.57;5.97;;;;;;;;;;4986543;28;20089;-88
2023/06/28 03:33:33;;;;;;;10.18;7.00;;;;;;;;;;4963676;28;20033;-87
2023/06/28 03:36:01;;;;;;;9.10;6.57;;;;;;;;;;4975546;28;20046;-88
2023/06/28 03:38:29;;;;;;;10.48;8.45;;;;;;;;;;4982515;28;20047;-87
2023/06/28 03:40:57;;;;;;;13.98;9.75;;;;;;;;;;4955514;28;20046;-88
2023/06/28 03:43:23;;;;;;;13.50;8.93;;;;;;;;;;4984118;28;20065;-87
2023/06/28 03:45:48;;;;;;;15.93;9.30;;;;;;;;;;4976077;28;20035;-88
2023/06/28 03:48:13;;;;;;;18.42;10.15;;;;;;;;;;4969216;28;20022;-88
2023/06/28 03:50:38;;;;;;;13.05;8.48;;;;;;;;;;4968647;28;20196;-88
2023/06/28 03:53:04;;;;;;;12.45;8.90;;;;;;;;;;4968124;28;20038;-88
2023/06/28 03:55:29;;;;;;;10.43;8.73;;;;;;;;;;4972714;28;20038;-88
2023/06/28 03:57:55;;;;;;;12.18;9.10;;;;;;;;;;4973665;28;20085;-88
2023/06/28 04:00:21;;;;;;;17.35;8.95;;;;;;;;;;4971506;28;20038;-88
2023/06/28 04:02:46;;;;;;;12.60;9.10;;;;;;;;;;4970408;28;20536;-89
2023/06/28 04:05:11;;;;;;;15.50;9.50;;;;;;;;;;4963959;28;20489;-87
2023/06/28 04:07:36;;;;;;;11.48;8.30;;;;;;;;;;4969649;28;20041;-88
2023/06/28 04:10:02;;;;;;;17.45;7.47;;;;;;;;;;4967733;28;20118;-89
2023/06/28 04:12:27;;;;;;;12.80;7.53;;;;;;;;;;4970816;28;20027;-88
2023/06/28 04:14:53;;;;;;;10.68;8.63;;;;;;;;;;4965043;28;20396;-87
2023/06/28 04:17:18;;;;;;;13.10;7.40;;;;;;;;;;4964242;28;20027;-88
2023/06/28 04:19:43;;;;;;;10.90;8.05;;;;;;;;;;4961448;28;20031;-88
2023/06/28 04:22:09;;;;;;;9.35;7.35;;;;;;;;;;4969895;28;20039;-88
2023/06/28 04:24:34;;;;;;;10.90;7.45;;;;;;;;;;4960597;28;20081;-88
2023/06/28 04:27:00;;;;;;;8.40;6.90;;;;;;;;;;4967697;28;20061;-88
2023/06/28 04:29:27;;;;;;;10.80;7.68;;;;;;;;;;4963573;28;20039;-88
2023/06/28 04:31:52;;;;;;;14.45;6.57;;;;;;;;;;4971704;28;20031;-88
2023/06/28 04:34:18;;;;;;;9.80;7.13;;;;;;;;;;4967922;28;20217;-89
2023/06/28 04:36:44;;;;;;;8.30;6.40;;;;;;;;;;4960482;28;20057;-88
2023/06/28 04:39:09;;;;;;;9.65;7.13;;;;;;;;;;4961110;28;20049;-88
2023/06/28 04:41:35;;;;;;;11.60;7.65;;;;;;;;;;4971729;28;20529;-87
2023/06/28 04:44:00;;;;;;;8.35;6.15;;;;;;;;;;4966014;28;20141;-88
2023/06/28 04:46:28;;;;;;;8.55;6.45;;;;;;;;;;4963488;28;20063;-88
2023/06/28 04:48:55;;;;;;;10.32;6.80;;;;;;;;;;4965512;28;20090;-88
2023/06/28 04:51:20;;;;;;;10.13;7.30;;;;;;;;;;4968531;28;20533;-88
2023/06/28 04:53:47;;;;;;;13.13;6.65;;;;;;;;;;4973327;28;20027;-88
2023/06/28 04:56:14;;;;;;;12.55;7.65;;;;;;;;;;4963727;28;20028;-88
2023/06/28 04:58:40;;;;;;;9.73;5.78;;;;;;;;;;4960878;28;20042;-88
2023/06/28 05:01:08;;;;;;;11.88;6.80;;;;;;;;;;4961466;28;20036;-88
2023/06/28 05:03:34;;;;;;;10.40;6.45;;;;;;;;;;4971752;28;20042;-88
2023/06/28 05:06:06;;;;;;;8.50;5.80;;;;;;;;;;4967303;28;20077;-88
2023/06/28 05:08:32;;;;;;;6.45;4.97;;;;;;;;;;4963952;28;20412;-89
2023/06/28 05:10:59;;;;;;;6.78;5.22;;;;;;;;;;4957864;28;20053;-88
2023/06/28 05:13:24;;;;;;;6.35;5.03;;;;;;;;;;4960675;28;20118;-88
2023/06/28 05:15:50;;;;;;;7.38;5.20;;;;;;;;;;4966730;28;20049;-88
2023/06/28 05:18:15;;;;;;;7.43;4.90;;;;;;;;;;4956834;28;20305;-89
2023/06/28 05:20:40;;;;;;;6.80;5.10;;;;;;;;;;4964038;28;20029;-88
2023/06/28 05:23:17;;;;;;;6.35;4.78;;;;;;;;;;4973122;28;20037;-89
2023/06/28 05:25:43;;;;;;;5.63;5.05;;;;;;;;;;4953440;28;20035;-88
2023/06/28 05:28:10;;;;;;;6.95;5.28;;;;;;;;;;4953535;28;20055;-88
2023/06/28 05:30:35;;;;;;;10.32;5.30;;;;;;;;;;4970806;28;20038;-88
2023/06/28 05:33:02;;;;;;;6.60;5.18;;;;;;;;;;4972651;28;20034;-88
2023/06/28 05:35:29;;;;;;;7.85;5.15;;;;;;;;;;4972349;28;20071;-88
2023/06/28 05:37:54;;;;;;;5.10;4.28;;;;;;;;;;4965120;28;20531;-88
2023/06/28 05:40:20;;;;;;;7.47;4.30;;;;;;;;;;4972940;28;20067;-88
2023/06/28 05:42:45;;;;;;;6.63;4.70;;;;;;;;;;4967543;28;20406;-88
2023/06/28 05:45:10;;;;;;;6.93;4.38;;;;;;;;;;4968916;28;20034;-88
2023/06/28 05:47:36;;;;;;;5.30;4.28;;;;;;;;;;4956375;28;20146;-87
2023/06/28 05:50:01;;;;;;;4.43;4.03;;;;;;;;;;4971557;28;20506;-89
2023/06/28 05:52:26;;;;;;;5.65;3.90;;;;;;;;;;4975495;28;20034;-88
2023/06/28 05:54:51;;;;;;;7.22;3.95;;;;;;;;;;4973625;28;20535;-88
2023/06/28 05:57:17;;;;;;;6.03;4.10;;;;;;;;;;4971916;28;20029;-88
2023/06/28 05:59:42;;;;;;;4.65;3.58;;;;;;;;;;4971812;28;20508;-88
2023/06/28 06:02:07;;;;;;;5.88;3.45;;;;;;;;;;4963064;28;20041;-88
2023/06/28 06:04:32;;;;;;;5.55;3.40;;;;;;;;;;4971907;28;20034;-88
2023/06/28 06:06:58;;;;;;;3.80;3.50;;;;;;;;;;4975247;28;20117;-88
2023/06/28 06:09:23;;;;;;;5.07;3.53;;;;;;;;;;4965970;28;20113;-88
2023/06/28 06:11:48;;;;;;;4.25;3.40;;;;;;;;;;4967792;28;20556;-88
2023/06/28 06:14:14;;;;;;;4.53;3.65;;;;;;;;;;4967088;28;20031;-88
2023/06/28 06:16:39;;;;;;;4.95;3.33;;;;;;;;;;4967343;28;20031;-89
2023/06/28 06:19:05;;;;;;;4.85;3.45;;;;;;;;;;4967648;28;20528;-88
2023/06/28 06:21:31;;;;;;;3.83;2.95;;;;;;;;;;4973050;28;20104;-88
2023/06/28 06:23:57;;;;;;;5.75;3.20;;;;;;;;;;4975107;28;20101;-88
2023/06/28 06:26:23;;;;;;;6.32;3.20;;;;;;;;;;4974984;28;20035;-88
2023/06/28 06:28:48;;;;;;;3.67;3.10;;;;;;;;;;4975113;28;20031;-88
2023/06/28 06:31:15;;;;;;;4.78;2.90;;;;;;;;;;4959607;28;20046;-88
2023/06/28 06:33:40;;;;;;;4.45;3.00;;;;;;;;;;4967524;28;20405;-88
2023/06/28 06:36:05;;;;;;;6.55;2.92;;;;;;;;;;4975219;28;20022;-88
2023/06/28 06:38:31;;;;;;;3.72;3.40;;;;;;;;;;4973892;28;20030;-88
2023/06/28 06:40:56;;;;;;;5.10;2.80;;;;;;;;;;4971790;28;20105;-88
2023/06/28 06:43:21;;;;;;;6.40;3.40;;;;;;;;;;4965114;28;20493;-88
2023/06/28 06:45:46;;;;;;;6.63;3.00;;;;;;;;;;4972977;28;20034;-89
2023/06/28 06:48:12;;;;;;;6.40;3.22;;;;;;;;;;4973341;28;20027;-88
2023/06/28 06:50:37;;;;;;;4.97;3.05;;;;;;;;;;4974431;28;20031;-88
2023/06/28 06:53:02;;;;;;;3.45;3.00;;;;;;;;;;4974488;28;20042;-89
2023/06/28 06:55:28;;;;;;;4.57;3.30;;;;;;;;;;4965374;28;20583;-88
2023/06/28 06:57:53;;;;;;;3.20;2.90;;;;;;;;;;4968612;28;20398;-88
2023/06/28 07:00:18;;;;;;;4.15;2.97;;;;;;;;;;4972183;28;20058;-88
2023/06/28 07:02:44;;;;;;;4.30;3.08;;;;;;;;;;4970668;28;20041;-89
2023/06/28 07:05:09;;;;;;;5.50;3.10;;;;;;;;;;4972308;28;20509;-89
2023/06/28 07:07:39;;;;;;;5.93;3.35;;;;;;;;;;4972540;28;20083;-90
2023/06/28 07:10:44;;;;;;;3.10;2.78;;;;;;;;;;4968717;28;20406;-91
2023/06/28 08:18:02;;;;;;;4.53;3.92;;;;;;;;;;4940662;29;20062;-88
2023/06/28 08:20:28;;;;;;;5.50;3.90;;;;;;;;;;4935106;29;20135;-90
2023/06/28 08:23:04;;;;;;;8.70;4.05;;;;;;;;;;4925269;29;20060;-89
2023/06/28 08:25:29;;;;;;;8.20;3.78;;;;;;;;;;4927458;29;20039;-88
2023/06/28 08:27:55;;;;;;;6.47;3.50;;;;;;;;;;4921555;29;20120;-88
2023/06/28 08:30:20;;;;;;;5.20;3.83;;;;;;;;;;4921642;29;20024;-88
2023/06/28 08:32:45;;;;;;;10.50;4.03;;;;;;;;;;4928291;29;20431;-88
2023/06/28 08:35:11;;;;;;;5.70;3.90;;;;;;;;;;4928452;29;20673;-89
2023/06/28 08:37:36;;;;;;;5.03;3.80;;;;;;;;;;4932927;29;20042;-88
2023/06/28 08:40:04;;;;;;;5.53;3.60;;;;;;;;;;4925579;29;20043;-88
2023/06/28 08:42:33;;;;;;;6.53;4.15;;;;;;;;;;4918782;29;20038;-89
2023/06/28 08:45:01;;;;;;;6.10;3.88;;;;;;;;;;4938185;29;20058;-88
2023/06/28 08:47:31;;;;;;;5.88;3.95;;;;;;;;;;4922093;29;20039;-89
2023/06/28 08:49:57;;;;;;;6.72;4.03;;;;;;;;;;4918248;29;20055;-89
2023/06/28 08:52:23;;;;;;;10.23;3.90;;;;;;;;;;4939503;29;20028;-87
2023/06/28 08:55:05;;;;;;;4.72;3.60;;;;;;;;;;4925505;29;20040;-87
2023/06/28 08:58:08;;;;;;;5.05;4.00;;;;;;;;;;4921626;29;20047;-87
2023/06/28 09:01:11;;;;;;;6.40;3.88;;;;;;;;;;4930557;29;20394;-88
2023/06/28 09:04:18;;;;;;;6.68;3.70;;;;;;;;;;4915182;29;20056;-87
2023/06/28 09:06:46;;;;;;;5.22;3.60;;;;;;;;;;4919147;29;20045;-87
2023/06/28 09:09:17;;;;;;;10.00;3.85;;;;;;;;;;4911417;29;20401;-89
2023/06/28 09:11:43;;;;;;;11.90;3.75;;;;;;;;;;4915767;29;20020;-87
2023/06/28 09:14:10;;;;;;;5.57;3.78;;;;;;;;;;4925372;29;20052;-87
2023/06/28 09:16:36;;;;;;;8.40;3.40;;;;;;;;;;4915124;29;20391;-89
2023/06/28 09:19:04;;;;;;;4.20;3.50;;;;;;;;;;4934902;29;20043;-89
2023/06/28 09:21:31;;;;;;;6.72;3.65;;;;;;;;;;4921511;29;20044;-89
2023/06/28 09:23:58;;;;;;;6.95;3.60;;;;;;;;;;4925720;29;20472;-89
2023/06/28 09:26:31;;;;;;;6.95;3.67;;;;;;;;;;4924768;29;20045;-88
2023/06/28 09:29:07;;;;;;;6.60;3.45;;;;;;;;;;4918442;29;20063;-88
2023/06/28 09:31:41;;;;;;;7.53;3.20;;;;;;;;;;4920638;29;20606;-89
2023/06/28 09:34:07;;;;;;;5.50;3.40;;;;;;;;;;4934438;29;20422;-89
2023/06/28 09:36:37;;;;;;;5.05;3.58;;;;;;;;;;4926232;29;20040;-88
2023/06/28 09:39:04;;;;;;;4.18;3.28;;;;;;;;;;4928025;29;20020;-88
2023/06/28 09:41:40;;;;;;;5.22;3.33;;;;;;;;;;4932946;29;20074;-88
2023/06/28 09:44:09;;;;;;;5.40;3.25;;;;;;;;;;4929525;29;20036;-88
2023/06/28 09:46:35;;;;;;;6.68;3.17;;;;;;;;;;4921935;29;20040;-89
2023/06/28 09:49:01;;;;;;;5.78;3.30;;;;;;;;;;4915277;29;20036;-88
2023/06/28 09:51:27;;;;;;;5.97;3.20;;;;;;;;;;4920219;29;20044;-88
2023/06/28 09:53:54;;;;;;;5.68;2.92;;;;;;;;;;4927583;29;20028;-88
2023/06/28 09:56:35;;;;;;;5.88;3.00;;;;;;;;;;4921210;29;20048;-87
2023/06/28 09:59:05;;;;;;;6.22;3.28;;;;;;;;;;4915086;29;20060;-88
2023/06/28 10:01:31;;;;;;;6.70;3.00;;;;;;;;;;4917122;29;20499;-88
2023/06/28 10:03:58;;;;;;;5.30;2.50;;;;;;;;;;4923687;29;20043;-88
2023/06/28 10:06:25;;;;;;;4.40;3.30;;;;;;;;;;4939664;29;20035;-88
2023/06/28 10:08:50;;;;;;;4.55;2.80;;;;;;;;;;4944588;29;20086;-89
2023/06/28 10:11:16;;;;;;;7.55;2.92;;;;;;;;;;4933240;29;20041;-88
2023/06/28 10:13:46;;;;;;;5.50;3.10;;;;;;;;;;4919585;29;20485;-89
2023/06/28 10:16:18;;;;;;;4.40;2.50;;;;;;;;;;4933303;29;20525;-89
2023/06/28 10:18:44;;;;;;;2.80;2.35;;;;;;;;;;4939527;29;20042;-88
2023/06/28 10:21:10;;;;;;;6.03;2.53;;;;;;;;;;4931399;29;20028;-88
2023/06/28 10:23:39;;;;;;;3.17;2.60;;;;;;;;;;4949822;28;20082;-90
2023/06/28 10:26:05;;;;;;;6.57;2.88;;;;;;;;;;4953323;29;20047;-90
2023/06/28 10:28:36;;;;;;;5.30;2.70;;;;;;;;;;4957825;28;20035;-88
2023/06/28 10:31:03;;;;;;;5.60;2.58;;;;;;;;;;4925255;29;20206;-90
2023/06/28 10:33:31;;;;;;;3.60;2.40;;;;;;;;;;4922323;29;20128;-90
2023/06/28 10:36:00;;;;;;;2.65;2.42;;;;;;;;;;4940499;29;20028;-88
2023/06/28 10:38:27;;;;;;;5.65;2.80;;;;;;;;;;4922840;29;20514;-88
2023/06/28 10:40:53;;;;;;;6.97;2.33;;;;;;;;;;4919428;29;20036;-88
2023/06/28 10:43:25;;;;;;;9.60;2.72;;;;;;;;;;4930840;29;20577;-87
2023/06/28 10:45:52;;;;;;;5.10;2.47;;;;;;;;;;4929700;29;20040;-89
2023/06/28 10:48:20;;;;;;;7.53;2.70;;;;;;;;;;4938868;29;20039;-88
2023/06/28 10:50:47;;;;;;;6.15;2.80;;;;;;;;;;4923194;29;20533;-87
2023/06/28 10:53:23;;;;;;;8.30;2.50;;;;;;;;;;4932848;29;20040;-89
2023/06/28 10:56:08;;;;;;;7.20;2.92;;;;;;;;;;4935226;29;20129;-90
2023/06/28 10:58:41;;;;;;;4.72;2.50;;;;;;;;;;4930244;29;20419;-88
2023/06/28 11:01:08;;;;;;;4.85;2.55;;;;;;;;;;4936718;29;20035;-86
2023/06/28 11:03:41;;;;;;;5.20;2.38;;;;;;;;;;4932427;29;20036;-88
2023/06/28 11:06:11;;;;;;;6.57;2.60;;;;;;;;;;4921897;29;20024;-87
2023/06/28 11:08:42;;;;;;;7.10;2.55;;;;;;;;;;4930815;29;20035;-88
2023/06/28 11:11:10;;;;;;;5.70;2.67;;;;;;;;;;4929243;29;20040;-89
2023/06/28 11:13:42;;;;;;;4.13;2.00;;;;;;;;;;4933782;29;20032;-88
2023/06/28 11:16:15;;;;;;;3.88;2.05;;;;;;;;;;4930714;29;20040;-87
2023/06/28 11:18:41;;;;;;;2.03;1.90;;;;;;;;;;4918531;29;20092;-88
2023/06/28 11:21:16;;;;;;;6.65;2.08;;;;;;;;;;4928880;29;20035;-87
2023/06/28 11:23:46;;;;;;;3.88;2.10;;;;;;;;;;4921329;29;20119;-87
2023/06/28 11:26:13;;;;;;;4.22;1.80;;;;;;;;;;4931154;29;20067;-86
2023/06/28 11:28:50;;;;;;;3.30;2.03;;;;;;;;;;4941710;29;20040;-88
2023/06/28 11:31:21;;;;;;;3.90;1.75;;;;;;;;;;4933337;29;20032;-89
2023/06/28 11:33:48;;;;;;;5.90;1.95;;;;;;;;;;4935506;29;20507;-88
2023/06/28 11:36:14;;;;;;;3.08;2.22;;;;;;;;;;4921216;29;20028;-89
2023/06/28 11:38:43;;;;;;;3.42;2.05;;;;;;;;;;4921965;29;20056;-89
2023/06/28 11:41:08;;;;;;;2.72;2.10;;;;;;;;;;4925528;29;20032;-89
2023/06/28 11:43:33;;;;;;;2.25;1.85;;;;;;;;;;4928706;29;20122;-87
2023/06/28 11:45:59;;;;;;;6.15;1.80;;;;;;;;;;4930460;29;20094;-89
2023/06/28 11:48:25;;;;;;;3.65;2.00;;;;;;;;;;4924895;29;20032;-89
2023/06/28 11:50:58;;;;;;;2.55;1.83;;;;;;;;;;4928252;29;20517;-88
2023/06/28 11:53:24;;;;;;;4.95;2.13;;;;;;;;;;4942564;29;20035;-87
2023/06/28 11:55:51;;;;;;;4.90;2.08;;;;;;;;;;4930262;29;20058;-88
2023/06/28 11:58:46;;;;;;;3.00;1.95;;;;;;;;;;4930052;29;20063;-87
2023/06/28 12:01:22;;;;;;;5.18;2.13;;;;;;;;;;4917963;29;20109;-89
2023/06/28 12:03:47;;;;;;;7.47;2.15;;;;;;;;;;4942492;29;20066;-87
2023/06/28 12:06:13;;;;;;;5.68;2.28;;;;;;;;;;4932462;29;20028;-90
2023/06/28 12:08:40;;;;;;;4.32;2.20;;;;;;;;;;4936150;29;20081;-87
2023/06/28 12:11:17;;;;;;;4.18;2.00;;;;;;;;;;4930917;29;20036;-87
2023/06/28 12:13:43;;;;;;;3.60;1.90;;;;;;;;;;4919029;29;20054;-85
2023/06/28 12:16:21;;;;;;;3.38;1.85;;;;;;;;;;4935487;29;20036;-87
2023/06/28 12:19:00;;;;;;;3.22;1.77;;;;;;;;;;4942584;29;20080;-87
2023/06/28 12:21:34;;;;;;;5.45;2.40;;;;;;;;;;4935182;29;20461;-88
2023/06/28 12:24:21;;;;;;;2.97;2.00;;;;;;;;;;4951487;29;20063;-87
2023/06/28 12:27:07;;;;;;;3.33;1.70;;;;;;;;;;4955218;29;20027;-88
2023/06/28 12:29:35;;;;;;;9.90;2.25;;;;;;;;;;4928139;29;20056;-88
2023/06/28 12:32:11;;;;;;;6.28;2.05;;;;;;;;;;4933976;29;20032;-86
2023/06/28 12:34:38;;;;;;;3.03;1.75;;;;;;;;;;4919165;29;20048;-87
2023/06/28 12:37:05;;;;;;;2.97;2.30;;;;;;;;;;4934571;29;20032;-86
2023/06/28 12:39:33;;;;;;;4.00;1.75;;;;;;;;;;4913258;29;20032;-87
2023/06/28 12:42:01;;;;;;;2.50;1.80;;;;;;;;;;4916223;29;20039;-86
2023/06/28 12:44:28;;;;;;;3.05;1.95;;;;;;;;;;4925923;29;20040;-87
2023/06/28 12:46:53;;;;;;;5.50;2.00;;;;;;;;;;4906609;29;20101;-88
2023/06/28 12:49:18;;;;;;;3.53;1.73;;;;;;;;;;4903543;29;20059;-86
2023/06/28 12:51:43;;;;;;;4.32;2.00;;;;;;;;;;4911166;29;20041;-87
2023/06/28 12:54:09;;;;;;;4.03;2.00;;;;;;;;;;4905932;29;20039;-89
2023/06/28 12:56:37;;;;;;;3.25;2.08;;;;;;;;;;4899043;29;20215;-88
2023/06/28 12:59:03;;;;;;;6.65;2.17;;;;;;;;;;4912878;29;20087;-88
2023/06/28 13:01:28;;;;;;;6.10;2.20;;;;;;;;;;4944582;29;20033;-87
2023/06/28 13:03:56;;;;;;;3.17;1.98;;;;;;;;;;4919992;29;20116;-87
2023/06/28 13:06:22;;;;;;;3.60;2.40;;;;;;;;;;4940077;29;20051;-87
2023/06/28 13:08:52;;;;;;;3.20;2.10;;;;;;;;;;4940466;29;20101;-89
2023/06/28 13:11:17;;;;;;;5.95;2.20;;;;;;;;;;4924059;29;20029;-88
2023/06/28 13:13:43;;;;;;;3.92;1.90;;;;;;;;;;4910040;29;20049;-91
2023/06/28 13:16:08;;;;;;;4.28;2.15;;;;;;;;;;4924211;29;20040;-92
2023/06/28 13:18:33;;;;;;;2.72;1.77;;;;;;;;;;4924277;29;20028;-92
2023/06/28 13:20:59;;;;;;;3.92;2.20;;;;;;;;;;4913747;29;20013;-89
2023/06/28 13:23:24;;;;;;;2.97;2.00;;;;;;;;;;4913491;29;20048;-88
2023/06/28 13:25:50;;;;;;;5.28;1.98;;;;;;;;;;4904719;29;20043;-88
2023/06/28 13:28:15;;;;;;;4.75;2.83;;;;;;;;;;4914156;29;20041;-90
2023/06/28 13:30:40;;;;;;;4.60;2.30;;;;;;;;;;4919608;29;20423;-88
2023/06/28 13:33:06;;;;;;;4.68;1.90;;;;;;;;;;4907509;29;20064;-87
2023/06/28 13:35:31;;;;;;;4.95;2.13;;;;;;;;;;4921939;29;20035;-90
2023/06/28 13:37:57;;;;;;;3.58;2.33;;;;;;;;;;4921608;29;20574;-88
2023/06/28 13:40:22;;;;;;;4.90;2.25;;;;;;;;;;4921808;29;20491;-89
2023/06/28 13:42:53;;;;;;;3.28;1.98;;;;;;;;;;4918368;29;20096;-89
2023/06/28 13:45:18;;;;;;;4.70;2.15;;;;;;;;;;4921502;29;20116;-89
2023/06/28 13:47:46;;;;;;;6.00;2.17;;;;;;;;;;4923044;29;20073;-88
2023/06/28 13:50:15;;;;;;;2.75;1.90;;;;;;;;;;4928951;29;20036;-88
2023/06/28 13:52:40;;;;;;;2.92;2.47;;;;;;;;;;4918380;29;20410;-87
2023/06/28 13:55:06;;;;;;;7.03;2.97;;;;;;;;;;4903093;29;20036;-88
2023/06/28 13:57:32;;;;;;;5.68;2.35;;;;;;;;;;4901694;29;20036;-88
2023/06/28 20:16:18;;;;;;;5.00;3.28;;;;;;;;;;4926017;29;20060;-89
2023/06/28 20:18:50;;;;;;;5.05;3.25;;;;;;;;;;4905838;29;20044;-88
2023/06/28 20:21:31;;;;;;;5.03;3.08;;;;;;;;;;4924806;29;20087;-89
2023/06/28 20:24:20;;;;;;;7.63;3.38;;;;;;;;;;4923579;29;20499;-89
2023/06/28 20:29:46;;;;;;;6.47;3.08;;;;;;;;;;4908446;29;20052;-88
2023/06/28 20:32:13;;;;;;;4.10;3.08;;;;;;;;;;4916036;29;20040;-90
2023/06/28 20:34:54;;;;;;;;;;;;;;;;;;;;;
2023/06/28 20:37:26;;;;;;;5.40;3.22;;;;;;;;;;4925753;29;20491;-89
2023/06/28 20:39:52;;;;;;;4.63;2.45;;;;;;;;;;4914384;29;20048;-90
2023/06/28 20:43:26;;;;;;;;;;;;;;;;;;;;;
2023/06/28 20:49:14;;;;;;;4.45;2.67;;;;;;;;;;4916290;29;20527;-89
2023/06/28 20:51:48;;;;;;;3.10;2.80;;;;;;;;;;4902220;29;20135;-89
2023/06/28 20:54:50;;;;;;;;;;;;;;;;;;4916602;29;20032;-89
2023/06/28 20:58:16;;;;;;;3.70;3.40;;;;;;;;;;4928903;29;19915;-90
2023/06/28 22:00:24;;;;;;;7.80;3.72;;;;;;;;;;4911418;28;20043;-75
2023/06/28 22:02:51;;;;;;;7.38;4.03;;;;;;;;;;4914964;29;20040;-76
2023/06/28 22:05:16;;;;;;;4.00;3.50;;;;;;;;;;4915470;29;20044;-76
2023/06/28 22:07:42;;;;;;;4.95;3.65;;;;;;;;;;4913152;29;20135;-75
2023/06/28 22:10:08;;;;;;;4.63;4.03;;;;;;;;;;4924196;29;20035;-75
2023/06/28 22:12:33;;;;;;;10.45;4.43;;;;;;;;;;4930807;28;20055;-75
2023/06/28 22:14:59;;;;;;;6.63;3.35;;;;;;;;;;4972383;23;20046;-77
2023/06/28 22:17:28;;;;;;;4.72;3.17;;;;;;;;;;4969694;28;20078;-79
2023/06/28 22:19:54;;;;;;;8.73;3.10;;;;;;;;;;4976155;28;20112;-77
2023/06/28 22:22:19;;;;;;;5.88;2.65;;;;;;;;;;4963908;28;20494;-77
2023/06/28 22:24:45;;;;;;;8.05;3.30;;;;;;;;;;4969544;28;20031;-77
2023/06/28 22:27:10;;;;;;;5.30;3.00;;;;;;;;;;4983019;28;20022;-77
2023/06/28 22:29:37;;;;;;;5.38;2.92;;;;;;;;;;4981166;28;20105;-77
2023/06/28 22:32:03;;;;;;;5.65;2.60;;;;;;;;;;4988637;28;20089;-77
2023/06/28 22:34:28;;;;;;;5.97;3.10;;;;;;;;;;4996598;28;20146;-77
2023/06/28 22:36:53;;;;;;;4.13;2.75;;;;;;;;;;4984593;28;20027;-77
2023/06/28 22:39:19;;;;;;;4.38;3.15;;;;;;;;;;4977824;28;20026;-77
2023/06/28 22:41:44;;;;;;;4.18;3.38;;;;;;;;;;4978073;28;20626;-77
2023/06/28 22:44:10;;;;;;;4.55;3.28;;;;;;;;;;4981377;28;20031;-76
2023/06/28 22:46:36;;;;;;;6.28;2.85;;;;;;;;;;4991167;28;20153;-77
2023/06/28 22:49:01;;;;;;;7.85;3.65;;;;;;;;;;4987005;28;20034;-77
2023/06/28 22:51:26;;;;;;;9.25;3.85;;;;;;;;;;4985030;28;20102;-76
2023/06/28 22:53:52;;;;;;;6.53;4.18;;;;;;;;;;4985770;28;20023;-76
2023/06/28 22:56:17;;;;;;;6.38;3.53;;;;;;;;;;4976366;28;20031;-76
2023/06/28 22:58:43;;;;;;;6.03;3.55;;;;;;;;;;4981319;28;20125;-76
2023/06/28 23:01:10;;;;;;;6.40;4.25;;;;;;;;;;4981692;28;20062;-76
2023/06/28 23:03:35;;;;;;;7.32;3.05;;;;;;;;;;4991533;28;20088;-76
2023/06/28 23:06:00;;;;;;;7.18;3.00;;;;;;;;;;4980854;28;20465;-76
2023/06/28 23:08:26;;;;;;;8.60;3.35;;;;;;;;;;4982291;28;20412;-76
2023/06/28 23:10:52;;;;;;;4.60;2.97;;;;;;;;;;4988815;28;20031;-76
2023/06/28 23:13:19;;;;;;;3.53;2.85;;;;;;;;;;4980721;28;20464;-76
2023/06/28 23:15:45;;;;;;;3.63;3.28;;;;;;;;;;4984910;28;20030;-76
2023/06/28 23:18:20;;;;;;;13.95;4.75;;;;;;;;;;4983705;28;20036;-76
2023/06/28 23:20:50;;;;;;;4.78;3.28;;;;;;;;;;4981770;28;20019;-76
2023/06/28 23:23:19;;;;;;;3.30;2.85;;;;;;;;;;4978366;28;20037;-76
2023/06/28 23:25:46;;;;;;;3.88;3.10;;;;;;;;;;4992227;28;20098;-76
2023/06/28 23:28:11;;;;;;;5.05;2.95;;;;;;;;;;4977141;28;20062;-76
2023/06/28 23:30:37;;;;;;;4.35;2.78;;;;;;;;;;4978969;28;20030;-75
2023/06/28 23:33:06;;;;;;;7.35;3.15;;;;;;;;;;4986561;28;20026;-75
2023/06/28 23:35:33;;;;;;;6.28;3.05;;;;;;;;;;4983832;28;20022;-77
2023/06/28 23:37:59;;;;;;;7.30;2.85;;;;;;;;;;4985292;28;20038;-77
2023/06/28 23:40:25;;;;;;;3.58;2.75;;;;;;;;;;4974909;28;20062;-76
2023/06/28 23:42:51;;;;;;;3.63;2.92;;;;;;;;;;4987210;28;20105;-77
2023/06/28 23:45:16;;;;;;;6.95;3.42;;;;;;;;;;4978646;28;20105;-77
2023/06/28 23:47:43;;;;;;;7.18;3.25;;;;;;;;;;4981201;28;20130;-77
2023/06/28 23:50:09;;;;;;;5.45;3.67;;;;;;;;;;4980411;28;20557;-77
2023/06/28 23:52:34;;;;;;;3.30;3.03;;;;;;;;;;4975441;28;20094;-77
2023/06/28 23:55:00;;;;;;;5.60;3.67;;;;;;;;;;4992099;28;20496;-77
2023/06/28 23:57:29;;;;;;;6.18;3.50;;;;;;;;;;4981659;28;20126;-77
2023/06/28 23:59:54;;;;;;;3.95;3.50;;;;;;;;;;4970413;28;20508;-77
